Time;durP1;ratioP1;P1;durP2;ratioP2;P2;SDS_P1;SDS_P2;PMS_P1;PMS_P2;Temp;Humidity;BMP_temperature;BMP_pressure;BME280_temperature;BME280_humidity;BME280_pressure;Samples;Min_cycle;Max_cycle;Signal;HPM_P1;HPM_P2
2023/04/06 00:00:30;;;;;;;5.90;3.58;;;12.00;72.60;;;;;;4938155;29;20062;-81
2023/04/06 00:02:56;;;;;;;6.13;3.95;;;11.90;72.50;;;;;;4940474;29;20485;-81
2023/04/06 00:05:22;;;;;;;6.47;3.75;;;12.00;72.60;;;;;;4940087;29;20054;-81
2023/04/06 00:07:48;;;;;;;6.80;3.95;;;11.90;72.60;;;;;;4941632;29;20031;-81
2023/04/06 00:10:13;;;;;;;6.90;3.55;;;12.00;72.70;;;;;;4941486;29;20078;-80
2023/04/06 00:12:39;;;;;;;6.28;3.78;;;11.90;72.50;;;;;;4941733;29;20031;-81
2023/04/06 00:15:05;;;;;;;6.20;3.70;;;12.00;72.60;;;;;;4924132;29;20061;-81
2023/04/06 00:17:31;;;;;;;6.28;3.90;;;11.90;72.40;;;;;;4940130;29;20047;-81
2023/04/06 00:19:56;;;;;;;5.93;3.38;;;11.90;72.50;;;;;;4940948;29;20473;-81
2023/04/06 00:22:22;;;;;;;6.10;3.60;;;11.90;72.50;;;;;;4938858;29;20036;-81
2023/04/06 00:24:47;;;;;;;6.00;3.83;;;12.00;72.50;;;;;;4940074;29;20020;-81
2023/04/06 00:27:13;;;;;;;5.57;3.42;;;11.90;72.40;;;;;;4939963;29;20082;-81
2023/04/06 00:29:39;;;;;;;6.00;3.75;;;12.00;72.50;;;;;;4938491;29;20030;-81
2023/04/06 00:32:05;;;;;;;6.30;3.90;;;11.90;72.40;;;;;;4938821;29;20031;-81
2023/04/06 00:34:31;;;;;;;6.55;3.88;;;11.90;72.40;;;;;;4920471;29;20083;-81
2023/04/06 00:36:56;;;;;;;6.20;3.50;;;11.90;72.30;;;;;;4936827;29;20028;-81
2023/04/06 00:39:22;;;;;;;6.43;3.90;;;11.90;72.30;;;;;;4936050;29;20024;-81
2023/04/06 00:41:51;;;;;;;5.95;3.75;;;11.90;72.30;;;;;;4936463;29;20401;-81
2023/04/06 00:44:17;;;;;;;5.53;3.42;;;11.90;72.40;;;;;;4937230;29;20019;-81
2023/04/06 00:46:42;;;;;;;6.20;3.75;;;11.90;72.40;;;;;;4938685;29;20174;-81
2023/04/06 00:49:08;;;;;;;5.95;3.90;;;11.90;72.30;;;;;;4936518;29;20024;-80
2023/04/06 00:51:33;;;;;;;6.57;4.10;;;11.90;72.30;;;;;;4937087;29;20040;-81
2023/04/06 00:53:59;;;;;;;6.18;4.05;;;11.90;72.80;;;;;;4937747;29;20047;-81
2023/04/06 00:56:26;;;;;;;5.82;3.70;;;11.90;72.30;;;;;;4938253;29;20420;-81
2023/04/06 00:58:51;;;;;;;5.63;3.60;;;11.90;72.30;;;;;;4937416;29;20445;-80
2023/04/06 01:01:17;;;;;;;6.32;3.53;;;11.90;72.10;;;;;;4937191;29;20074;-80
2023/04/06 01:03:44;;;;;;;6.60;3.85;;;11.90;72.30;;;;;;4936370;29;20031;-80
2023/04/06 02:37:06;;;;;;;6.07;3.65;;;11.80;71.90;;;;;;4920116;29;20075;-79
2023/04/06 02:39:32;;;;;;;6.13;3.70;;;11.80;72.00;;;;;;4929611;29;20481;-82
2023/04/06 02:41:57;;;;;;;5.60;3.78;;;11.80;71.90;;;;;;4950548;29;20039;-82
2023/04/06 02:44:23;;;;;;;6.57;3.90;;;11.80;71.90;;;;;;4922127;29;20051;-82
2023/04/06 02:46:48;;;;;;;6.03;3.90;;;11.80;71.90;;;;;;4921793;29;20034;-82
2023/04/06 02:49:14;;;;;;;5.95;3.72;;;11.80;71.80;;;;;;4921957;29;20209;-82
2023/04/06 02:51:39;;;;;;;5.40;3.65;;;11.80;71.90;;;;;;4925268;29;20059;-83
2023/04/06 02:54:05;;;;;;;5.85;3.75;;;11.80;71.90;;;;;;4941961;29;20032;-82
2023/04/06 02:56:30;;;;;;;5.72;3.70;;;11.80;71.80;;;;;;4942507;29;20067;-82
2023/04/06 02:58:56;;;;;;;6.00;3.70;;;11.80;71.90;;;;;;4924965;29;20102;-82
2023/04/06 03:01:21;;;;;;;5.88;3.80;;;11.80;71.80;;;;;;4924086;29;20024;-82
2023/04/06 03:03:47;;;;;;;5.88;3.80;;;11.80;71.80;;;;;;4924266;29;20114;-81
2023/04/06 03:06:12;;;;;;;5.78;3.65;;;11.80;71.80;;;;;;4923916;29;20028;-82
2023/04/06 03:08:38;;;;;;;6.00;3.80;;;11.80;71.70;;;;;;4924494;29;20023;-82
2023/04/06 03:11:03;;;;;;;6.22;3.75;;;11.80;71.80;;;;;;4922576;29;20024;-81
2023/04/06 03:13:29;;;;;;;6.07;3.85;;;11.80;71.70;;;;;;4923440;29;20028;-82
2023/04/06 03:15:54;;;;;;;6.00;4.00;;;11.80;71.80;;;;;;4941068;29;20524;-81
2023/04/06 03:18:25;;;;;;;7.35;4.38;;;11.80;71.80;;;;;;4926796;29;20032;-82
2023/04/06 03:20:50;;;;;;;6.32;3.80;;;11.80;71.80;;;;;;4943410;29;20032;-82
2023/04/06 03:23:16;;;;;;;6.57;3.80;;;11.80;71.70;;;;;;4926386;29;20507;-82
2023/04/06 03:25:41;;;;;;;6.00;3.90;;;11.80;71.70;;;;;;4926012;29;20074;-83
2023/04/06 03:28:07;;;;;;;6.40;4.50;;;11.80;71.70;;;;;;4926100;29;20389;-82
2023/04/06 03:30:33;;;;;;;5.97;4.05;;;11.80;71.70;;;;;;4925054;29;20028;-82
2023/04/06 03:32:59;;;;;;;6.25;4.15;;;11.80;71.60;;;;;;4938886;29;20048;-81
2023/04/06 03:35:24;;;;;;;5.90;4.00;;;11.80;71.80;;;;;;4924245;29;20449;-82
2023/04/06 03:37:50;;;;;;;5.90;3.70;;;11.80;71.80;;;;;;4925126;29;20034;-82
2023/04/06 03:40:15;;;;;;;5.97;4.20;;;11.80;71.80;;;;;;4942407;29;20107;-82
2023/04/06 03:42:41;;;;;;;5.88;4.00;;;11.80;71.70;;;;;;4923342;29;20035;-81
2023/04/06 03:45:07;;;;;;;6.10;4.00;;;11.80;71.70;;;;;;4941935;29;20660;-82
2023/04/06 03:47:33;;;;;;;6.47;4.18;;;11.80;71.80;;;;;;4924364;29;20079;-81
2023/04/06 03:49:58;;;;;;;6.70;4.38;;;11.70;71.70;;;;;;4924509;29;20024;-81
2023/04/06 03:52:24;;;;;;;6.78;4.60;;;11.70;71.60;;;;;;4924213;29;20024;-82
2023/04/06 03:54:49;;;;;;;6.25;4.47;;;11.70;71.70;;;;;;4924569;29;20024;-82
2023/04/06 03:57:15;;;;;;;6.32;4.30;;;11.70;72.10;;;;;;4921655;29;20032;-82
2023/04/06 03:59:40;;;;;;;7.25;4.63;;;11.70;71.60;;;;;;4922203;29;20183;-82
2023/04/06 04:02:06;;;;;;;6.13;4.20;;;11.70;71.60;;;;;;4938536;29;20500;-82
2023/04/06 04:04:31;;;;;;;6.63;4.20;;;11.80;71.70;;;;;;4921673;29;20027;-82
2023/04/06 04:06:57;;;;;;;6.68;4.40;;;11.70;72.10;;;;;;4923680;29;20083;-82
2023/04/06 04:09:22;;;;;;;7.13;4.30;;;11.70;71.60;;;;;;4940223;29;20032;-82
2023/04/06 04:11:48;;;;;;;6.18;4.10;;;11.70;71.60;;;;;;4920908;29;20027;-81
2023/04/06 04:14:13;;;;;;;7.18;4.70;;;11.70;71.60;;;;;;4940577;29;20102;-82
2023/04/06 04:16:39;;;;;;;6.82;4.50;;;11.80;71.60;;;;;;4923136;29;20051;-82
2023/04/06 04:19:05;;;;;;;7.22;4.53;;;11.70;71.50;;;;;;4923233;29;20059;-80
2023/04/06 04:21:31;;;;;;;6.75;4.65;;;11.70;71.60;;;;;;4918928;29;20503;-79
2023/04/06 04:23:57;;;;;;;7.65;4.78;;;11.70;71.60;;;;;;4932647;29;20071;-79
2023/04/06 04:26:22;;;;;;;6.70;4.60;;;11.70;71.50;;;;;;4916760;29;20023;-80
2023/04/06 04:28:48;;;;;;;7.25;4.57;;;11.70;71.50;;;;;;4915263;29;20040;-80
2023/04/06 04:31:14;;;;;;;7.22;5.03;;;11.70;71.70;;;;;;4936586;29;20032;-79
2023/04/06 04:33:39;;;;;;;7.05;5.05;;;11.70;71.40;;;;;;4926677;29;20122;-82
2023/04/06 04:36:05;;;;;;;6.75;4.60;;;11.70;71.50;;;;;;4957124;29;20412;-82
2023/04/06 04:38:31;;;;;;;7.35;5.40;;;11.70;71.50;;;;;;4936274;29;20031;-81
2023/04/06 04:40:56;;;;;;;8.10;5.78;;;11.70;71.50;;;;;;4920917;29;20497;-82
2023/04/06 04:43:22;;;;;;;7.75;5.53;;;11.70;71.50;;;;;;4932006;29;20774;-79
2023/04/06 04:45:47;;;;;;;8.27;5.85;;;11.70;71.50;;;;;;4935237;29;20074;-81
2023/04/06 04:48:13;;;;;;;8.63;6.10;;;11.70;71.40;;;;;;4919513;29;20034;-78
2023/04/06 04:50:38;;;;;;;8.20;6.07;;;11.70;71.50;;;;;;4933853;29;20393;-81
2023/04/06 04:53:05;;;;;;;8.13;6.05;;;11.70;71.50;;;;;;4933458;29;20031;-80
2023/04/06 04:55:31;;;;;;;8.00;6.22;;;11.70;71.50;;;;;;4934726;29;20034;-80
2023/04/06 04:57:57;;;;;;;8.60;6.07;;;11.70;71.40;;;;;;4935405;29;20107;-82
2023/04/06 05:00:22;;;;;;;8.18;6.07;;;11.80;71.40;;;;;;4946337;29;20511;-83
2023/04/06 05:02:48;;;;;;;8.25;6.32;;;11.70;71.50;;;;;;4937663;29;20027;-81
2023/04/06 05:05:13;;;;;;;8.57;6.15;;;11.70;71.30;;;;;;4953140;29;20683;-80
2023/04/06 05:07:39;;;;;;;7.65;6.10;;;11.70;71.40;;;;;;4936898;29;20023;-80
2023/04/06 05:10:05;;;;;;;8.65;6.43;;;11.70;71.30;;;;;;4953932;29;20464;-82
2023/04/06 05:12:31;;;;;;;7.55;6.28;;;11.70;71.40;;;;;;4953381;29;20070;-82
2023/04/06 05:14:57;;;;;;;9.23;6.82;;;11.70;71.30;;;;;;4952274;29;20027;-81
2023/04/06 05:17:22;;;;;;;8.10;6.13;;;11.70;71.40;;;;;;4937138;29;20027;-81
2023/04/06 05:19:48;;;;;;;8.93;6.32;;;11.70;71.40;;;;;;4936489;29;20041;-79
2023/04/06 05:22:16;;;;;;;7.95;6.00;;;11.70;71.10;;;;;;4934134;29;20400;-82
2023/04/06 05:24:41;;;;;;;9.63;6.97;;;11.70;71.30;;;;;;4953300;29;20019;-83
2023/04/06 05:27:07;;;;;;;8.88;6.53;;;11.70;71.00;;;;;;4953648;29;20070;-86
2023/04/06 05:29:33;;;;;;;7.57;6.18;;;11.70;71.30;;;;;;4952718;29;20031;-78
2023/04/06 05:31:58;;;;;;;9.13;6.55;;;11.70;71.40;;;;;;4954315;29;20027;-85
2023/04/06 05:34:24;;;;;;;8.50;6.68;;;11.70;71.40;;;;;;4967211;29;20067;-83
2023/04/06 05:36:49;;;;;;;7.97;6.25;;;11.70;71.40;;;;;;4940288;29;20040;-83
2023/04/06 05:39:15;;;;;;;8.10;5.85;;;11.70;71.30;;;;;;4917584;29;20038;-85
2023/04/06 05:41:41;;;;;;;8.85;6.68;;;11.70;71.30;;;;;;4917213;29;20036;-85
2023/04/06 05:44:06;;;;;;;9.02;6.53;;;11.70;71.30;;;;;;4918498;29;20055;-83
2023/04/06 05:46:32;;;;;;;8.30;6.35;;;11.80;71.30;;;;;;4917050;29;20031;-82
2023/04/06 05:48:57;;;;;;;8.35;6.53;;;11.70;71.10;;;;;;4910532;29;20032;-82
2023/04/06 05:51:23;;;;;;;8.07;6.20;;;11.80;71.10;;;;;;4917769;29;20046;-83
2023/04/06 05:53:48;;;;;;;8.10;5.97;;;11.70;70.90;;;;;;4913784;29;20036;-82
2023/04/06 05:56:14;;;;;;;9.25;6.63;;;11.70;70.90;;;;;;4914408;29;20031;-84
2023/04/06 05:58:39;;;;;;;8.80;6.35;;;11.80;70.90;;;;;;4916601;29;20485;-85
2023/04/06 06:01:05;;;;;;;8.52;6.65;;;11.80;70.80;;;;;;4933309;29;20034;-84
2023/04/06 06:03:30;;;;;;;9.80;6.38;;;11.80;70.80;;;;;;4933340;29;20031;-84
2023/04/06 06:06:03;;;;;;;8.20;6.38;;;11.80;71.10;;;;;;4913599;29;20034;-83
2023/04/06 06:08:29;;;;;;;8.25;6.15;;;11.80;70.50;;;;;;4915556;29;20181;-80
2023/04/06 06:10:55;;;;;;;9.27;6.78;;;11.90;70.40;;;;;;4914481;29;20127;-80
2023/04/06 06:13:20;;;;;;;8.60;6.30;;;11.90;70.40;;;;;;4930597;29;20388;-82
2023/04/06 06:15:46;;;;;;;8.35;6.20;;;11.90;70.30;;;;;;4915352;29;20040;-80
2023/04/06 06:18:12;;;;;;;9.13;6.45;;;11.90;70.10;;;;;;4932315;29;20090;-80
2023/04/06 06:20:37;;;;;;;8.52;6.50;;;11.90;70.10;;;;;;4930901;29;20332;-79
2023/04/06 06:23:03;;;;;;;8.65;6.53;;;11.90;70.10;;;;;;4917446;29;20036;-82
2023/04/06 06:25:30;;;;;;;9.15;6.47;;;11.90;70.00;;;;;;4935314;29;20036;-81
2023/04/06 06:27:56;;;;;;;8.80;6.63;;;12.00;69.90;;;;;;4918246;29;20111;-83
2023/04/06 06:30:22;;;;;;;8.23;6.10;;;12.00;69.90;;;;;;4934988;29;20392;-83
2023/04/06 06:32:47;;;;;;;9.82;6.50;;;12.00;69.80;;;;;;4917466;29;20047;-81
2023/04/06 06:35:13;;;;;;;8.27;6.50;;;12.00;69.60;;;;;;4934247;29;20389;-82
2023/04/06 06:37:38;;;;;;;8.90;6.30;;;12.00;69.50;;;;;;4934312;29;20103;-82
2023/04/06 06:40:04;;;;;;;7.88;6.10;;;12.10;69.70;;;;;;4934264;29;20511;-82
2023/04/06 06:42:29;;;;;;;8.52;6.38;;;12.10;69.60;;;;;;4916386;29;20043;-83
2023/04/06 06:44:55;;;;;;;9.30;6.20;;;12.00;69.50;;;;;;4916837;29;20154;-82
2023/04/06 06:47:20;;;;;;;7.93;5.78;;;12.10;69.50;;;;;;4934026;29;20036;-82
2023/04/06 06:49:46;;;;;;;8.25;6.20;;;12.20;69.60;;;;;;4933007;29;20031;-83
2023/04/06 06:52:11;;;;;;;8.65;6.18;;;12.20;69.60;;;;;;4931063;29;20416;-80
2023/04/06 06:54:37;;;;;;;7.88;6.32;;;12.20;69.40;;;;;;4929534;29;20035;-83
2023/04/06 06:57:02;;;;;;;8.10;6.40;;;12.20;69.20;;;;;;4915672;29;20569;-83
2023/04/06 06:59:28;;;;;;;7.88;5.97;;;12.30;69.40;;;;;;4933253;29;20071;-82
2023/04/06 07:01:53;;;;;;;8.18;6.32;;;12.30;69.30;;;;;;4931408;29;20092;-81
2023/04/06 07:04:19;;;;;;;7.60;5.80;;;12.30;69.30;;;;;;4915132;29;20454;-82
2023/04/06 07:06:45;;;;;;;7.57;5.68;;;12.30;69.20;;;;;;4914700;29;20063;-82
2023/04/06 07:09:10;;;;;;;7.85;5.82;;;12.30;69.20;;;;;;4913828;29;20135;-82
2023/04/06 07:11:36;;;;;;;7.82;5.93;;;12.40;69.30;;;;;;4911970;29;20023;-83
2023/04/06 07:14:01;;;;;;;8.05;5.90;;;12.40;69.40;;;;;;4931245;29;20102;-81
2023/04/06 07:16:27;;;;;;;8.68;6.13;;;12.40;69.20;;;;;;4914818;29;20083;-82
2023/04/06 07:18:52;;;;;;;7.57;5.57;;;12.50;69.30;;;;;;4914388;29;20043;-82
2023/04/06 07:21:18;;;;;;;7.90;6.15;;;12.50;69.80;;;;;;4913415;29;20123;-81
2023/04/06 07:23:43;;;;;;;7.45;5.55;;;12.50;69.30;;;;;;4914105;29;20548;-82
2023/04/06 07:26:09;;;;;;;7.72;5.80;;;12.50;69.50;;;;;;4931285;29;20027;-81
2023/04/06 07:28:34;;;;;;;8.20;6.07;;;12.50;69.60;;;;;;4913788;29;20524;-82
2023/04/06 07:31:00;;;;;;;8.05;5.95;;;12.60;69.80;;;;;;4912395;29;20557;-81
2023/04/06 07:33:29;;;;;;;7.63;5.55;;;12.60;69.60;;;;;;4912216;29;20126;-81
2023/04/06 07:35:55;;;;;;;8.25;5.95;;;12.60;69.80;;;;;;4911861;29;20480;-82
2023/04/06 07:38:20;;;;;;;8.25;6.15;;;12.60;70.00;;;;;;4929084;29;20066;-80
2023/04/06 07:40:46;;;;;;;8.40;6.15;;;12.60;70.00;;;;;;4929512;29;20028;-82
2023/04/06 07:43:11;;;;;;;7.60;5.80;;;12.70;70.20;;;;;;4911720;29;20118;-81
2023/04/06 07:45:37;;;;;;;8.10;6.07;;;12.70;70.10;;;;;;4913185;29;20539;-81
2023/04/06 07:48:02;;;;;;;7.95;5.97;;;12.70;70.20;;;;;;4913448;29;20028;-81
2023/04/06 07:50:28;;;;;;;7.70;6.18;;;12.70;69.90;;;;;;4912387;29;20392;-82
2023/04/06 07:52:53;;;;;;;7.60;5.75;;;12.80;70.00;;;;;;4913284;29;20603;-81
2023/04/06 07:55:19;;;;;;;8.30;5.88;;;12.80;69.50;;;;;;4930239;29;20036;-80
2023/04/06 07:57:45;;;;;;;7.68;6.05;;;12.80;70.30;;;;;;4929469;29;20159;-81
2023/04/06 08:00:11;;;;;;;7.65;6.13;;;12.80;69.70;;;;;;4911469;29;20123;-82
2023/04/06 08:02:36;;;;;;;7.53;6.10;;;12.90;69.40;;;;;;4929674;29;20413;-81
2023/04/06 08:05:02;;;;;;;8.55;6.32;;;12.90;69.20;;;;;;4932022;29;20048;-82
2023/04/06 08:07:27;;;;;;;8.38;5.90;;;12.90;69.10;;;;;;4915299;29;20322;-82
2023/04/06 08:09:53;;;;;;;7.18;5.65;;;12.90;69.60;;;;;;4915164;29;20237;-81
2023/04/06 08:12:19;;;;;;;8.13;6.00;;;13.00;70.50;;;;;;4914899;29;20340;-81
2023/04/06 08:14:44;;;;;;;7.53;5.65;;;13.00;69.70;;;;;;4915334;29;20413;-80
2023/04/06 08:17:10;;;;;;;8.10;5.70;;;12.90;69.70;;;;;;4931977;29;20414;-81
2023/04/06 08:19:35;;;;;;;7.97;5.72;;;13.00;70.20;;;;;;4932439;29;20054;-81
2023/04/06 08:22:01;;;;;;;7.53;6.15;;;13.00;69.50;;;;;;4932221;29;20036;-80
2023/04/06 08:24:27;;;;;;;8.05;6.07;;;13.00;69.90;;;;;;4915153;29;20504;-83
2023/04/06 08:26:53;;;;;;;8.60;6.22;;;13.10;69.70;;;;;;4915033;29;20106;-80
2023/04/06 08:29:18;;;;;;;8.07;5.80;;;13.10;69.40;;;;;;4914648;29;20035;-82
2023/04/06 08:31:44;;;;;;;7.38;5.70;;;13.10;69.20;;;;;;4931296;29;20031;-82
2023/04/06 08:34:10;;;;;;;8.55;5.55;;;13.10;68.60;;;;;;4914496;29;20028;-81
2023/04/06 08:36:35;;;;;;;7.10;5.65;;;13.10;68.50;;;;;;4914329;29;20472;-80
2023/04/06 08:39:01;;;;;;;6.97;5.35;;;13.20;68.60;;;;;;4914527;29;20043;-83
2023/04/06 08:41:27;;;;;;;8.05;5.30;;;13.20;68.40;;;;;;4914286;29;20028;-81
2023/04/06 08:43:58;;;;;;;8.63;5.97;;;13.20;68.50;;;;;;4931227;29;20099;-82
2023/04/06 08:46:32;;;;;;;7.53;5.55;;;13.20;69.20;;;;;;4914352;29;20027;-83
2023/04/06 08:49:01;;;;;;;7.57;5.97;;;13.20;68.80;;;;;;4931226;29;20103;-81
2023/04/06 08:51:28;;;;;;;6.93;5.28;;;13.30;68.90;;;;;;4914145;29;20090;-81
2023/04/06 08:53:55;;;;;;;7.88;5.50;;;13.30;68.50;;;;;;4914043;29;20044;-82
2023/04/06 08:56:22;;;;;;;7.30;5.55;;;13.30;68.40;;;;;;4914213;29;20023;-82
2023/04/06 08:58:48;;;;;;;7.03;5.28;;;13.30;68.30;;;;;;4915111;29;20035;-84
2023/04/06 09:01:16;;;;;;;7.93;5.95;;;13.30;68.70;;;;;;4929124;29;20393;-84
2023/04/06 09:03:42;;;;;;;7.30;5.43;;;13.30;68.30;;;;;;4937250;29;20139;-83
2023/04/06 09:06:09;;;;;;;8.07;5.82;;;13.40;68.30;;;;;;4918739;29;20051;-83
2023/04/06 09:08:36;;;;;;;7.88;6.00;;;13.40;68.50;;;;;;4919743;29;20441;-84
2023/04/06 09:11:02;;;;;;;7.50;5.75;;;13.40;69.20;;;;;;4918510;29;20031;-82
2023/04/06 09:13:28;;;;;;;7.75;5.82;;;13.40;69.10;;;;;;4918700;29;20036;-82
2023/04/06 09:16:03;;;;;;;7.07;5.72;;;13.40;69.10;;;;;;4935052;29;20086;-82
2023/04/06 09:18:33;;;;;;;8.23;6.20;;;13.40;69.20;;;;;;4918002;29;20352;-82
2023/04/06 09:21:03;;;;;;;8.98;5.75;;;13.40;68.90;;;;;;4934514;29;20070;-82
2023/04/06 09:23:29;;;;;;;8.80;6.03;;;13.40;68.90;;;;;;4918483;29;20126;-82
2023/04/06 09:26:08;;;;;;;7.90;6.05;;;13.50;69.00;;;;;;4917602;29;20028;-81
2023/04/06 09:28:43;;;;;;;8.23;5.60;;;13.40;68.70;;;;;;4934885;29;20110;-81
2023/04/06 09:31:11;;;;;;;7.85;5.45;;;13.50;68.30;;;;;;4915243;29;20492;-82
2023/04/06 09:33:46;;;;;;;7.18;5.68;;;13.50;68.20;;;;;;4913706;29;20028;-82
2023/04/06 09:36:14;;;;;;;7.47;5.53;;;13.50;68.00;;;;;;4917376;29;20100;-82
2023/04/06 09:38:53;;;;;;;7.95;5.95;;;13.50;68.00;;;;;;4916066;29;20023;-82
2023/04/06 09:41:23;;;;;;;7.90;5.53;;;13.50;68.10;;;;;;4915772;29;20497;-82
2023/04/06 09:43:51;;;;;;;7.47;5.32;;;13.50;68.30;;;;;;4915762;29;20039;-82
2023/04/06 09:46:20;;;;;;;7.65;5.75;;;13.50;68.10;;;;;;4915745;29;20485;-82
2023/04/06 09:48:46;;;;;;;7.53;5.60;;;13.50;68.60;;;;;;4915574;29;20433;-82
2023/04/06 09:51:15;;;;;;;7.93;5.90;;;13.50;68.40;;;;;;4919459;29;20383;-81
2023/04/06 09:53:44;;;;;;;7.50;5.72;;;13.40;68.40;;;;;;4919016;29;20036;-82
2023/04/06 09:56:12;;;;;;;7.75;5.75;;;13.50;68.30;;;;;;4919112;29;20095;-83
2023/04/06 09:58:42;;;;;;;7.38;5.40;;;13.50;68.90;;;;;;4919198;29;20028;-83
2023/04/06 10:01:15;;;;;;;8.10;5.75;;;13.50;68.70;;;;;;4934934;29;20031;-84
2023/04/06 10:04:00;;;;;;;7.00;5.22;;;13.60;69.00;;;;;;4917545;29;20400;-82
2023/04/06 10:06:28;;;;;;;7.72;5.45;;;13.60;69.10;;;;;;4934733;29;20032;-82
2023/04/06 10:08:56;;;;;;;7.97;5.40;;;13.50;68.80;;;;;;4917238;29;20553;-83
2023/04/06 10:11:21;;;;;;;7.20;5.32;;;13.60;68.90;;;;;;4917058;29;20059;-81
2023/04/06 10:13:48;;;;;;;6.90;5.22;;;13.60;69.00;;;;;;4916934;29;20063;-82
2023/04/06 10:16:14;;;;;;;6.80;5.07;;;13.60;69.50;;;;;;4908356;29;20028;-82
2023/04/06 10:18:45;;;;;;;8.27;5.47;;;13.60;69.10;;;;;;4916188;29;20865;-80
2023/04/06 10:21:17;;;;;;;7.70;5.47;;;13.60;69.30;;;;;;4933307;29;20045;-81
2023/04/06 10:24:00;;;;;;;8.10;5.40;;;13.60;69.40;;;;;;4912818;29;20148;-80
2023/04/06 10:26:26;;;;;;;6.65;4.97;;;13.60;69.40;;;;;;4931595;29;20162;-82
2023/04/06 10:28:52;;;;;;;7.35;5.20;;;13.60;69.30;;;;;;4914773;29;20130;-83
2023/04/06 10:31:27;;;;;;;6.95;5.22;;;13.60;69.40;;;;;;4911955;29;20042;-81
2023/04/06 10:34:00;;;;;;;7.15;5.13;;;13.60;69.60;;;;;;4914425;29;20040;-81
2023/04/06 10:36:33;;;;;;;6.90;5.03;;;13.60;69.30;;;;;;4932248;29;20221;-80
2023/04/06 10:39:00;;;;;;;7.65;5.40;;;13.70;69.70;;;;;;4915234;29;20047;-80
2023/04/06 10:41:44;;;;;;;6.93;5.15;;;13.70;69.60;;;;;;4932206;29;20107;-81
2023/04/06 10:44:20;;;;;;;7.40;5.20;;;13.70;69.70;;;;;;4914576;29;20035;-83
2023/04/06 10:46:53;;;;;;;7.10;5.18;;;13.70;70.10;;;;;;4931558;29;20028;-83
2023/04/06 10:49:19;;;;;;;7.60;5.30;;;13.70;70.20;;;;;;4931538;29;20492;-81
2023/04/06 10:51:45;;;;;;;6.50;5.00;;;13.60;70.00;;;;;;4929540;29;20059;-83
2023/04/06 10:54:12;;;;;;;6.57;4.93;;;13.70;70.10;;;;;;4930044;29;20492;-80
2023/04/06 10:56:38;;;;;;;6.80;4.68;;;13.70;70.10;;;;;;4914001;29;20020;-80
2023/04/06 10:59:05;;;;;;;7.78;5.50;;;13.70;70.10;;;;;;4911828;29;20028;-79
2023/04/06 11:01:31;;;;;;;6.75;4.95;;;13.70;70.20;;;;;;4912660;29;20537;-82
2023/04/06 11:04:00;;;;;;;7.38;5.30;;;13.70;70.30;;;;;;4913397;29;20036;-80
2023/04/06 11:06:28;;;;;;;7.07;4.85;;;13.70;70.20;;;;;;4913440;29;20783;-80
2023/04/06 11:08:55;;;;;;;7.25;4.78;;;13.70;70.30;;;;;;4912263;29;20087;-83
2023/04/06 11:11:22;;;;;;;7.18;4.93;;;13.80;70.20;;;;;;4911905;29;20031;-80
2023/04/06 11:13:59;;;;;;;7.03;4.95;;;13.70;70.30;;;;;;4912172;29;20071;-83
2023/04/06 11:16:29;;;;;;;7.28;5.05;;;13.70;70.30;;;;;;4912363;29;20131;-81
2023/04/06 11:19:00;;;;;;;7.77;5.23;;;13.70;70.00;;;;;;4912697;29;20031;-83
2023/04/06 11:21:39;;;;;;;7.28;5.22;;;13.70;70.10;;;;;;4912837;29;20119;-81
2023/04/06 11:24:14;;;;;;;6.18;4.45;;;13.70;70.20;;;;;;4913229;29;20039;-82
2023/04/06 11:26:48;;;;;;;6.80;4.47;;;13.70;70.40;;;;;;4911600;29;20444;-80
2023/04/06 11:29:15;;;;;;;7.13;5.03;;;13.70;69.30;;;;;;4929557;29;20023;-80
2023/04/06 11:31:52;;;;;;;6.82;4.90;;;13.70;70.20;;;;;;4929674;29;20058;-81
2023/04/06 11:34:19;;;;;;;7.10;5.32;;;13.70;69.80;;;;;;4929052;29;20511;-80
2023/04/06 11:36:46;;;;;;;7.35;4.80;;;13.80;69.40;;;;;;4929003;29;20482;-80
2023/04/06 11:39:23;;;;;;;6.90;4.80;;;13.80;70.00;;;;;;4932475;29;20504;-81
2023/04/06 11:42:07;;;;;;;7.15;4.65;;;13.80;70.30;;;;;;4915452;29;20393;-80
2023/04/06 11:44:45;;;;;;;6.82;4.28;;;13.70;69.40;;;;;;4915834;29;20393;-80
2023/04/06 11:47:11;;;;;;;6.75;4.40;;;13.80;69.90;;;;;;4932263;29;20035;-81
2023/04/06 11:49:38;;;;;;;6.88;4.68;;;13.70;70.10;;;;;;4915474;29;20584;-79
2023/04/06 11:52:24;;;;;;;6.80;4.82;;;13.80;69.70;;;;;;4915025;29;20436;-80
2023/04/06 11:54:51;;;;;;;6.75;4.57;;;13.80;70.10;;;;;;4915398;29;20027;-80
2023/04/06 11:57:18;;;;;;;6.72;4.57;;;13.80;70.00;;;;;;4915734;29;20437;-82
2023/04/06 11:59:44;;;;;;;6.32;4.38;;;13.80;70.40;;;;;;4933040;29;20569;-81
2023/04/06 12:02:10;;;;;;;6.85;4.60;;;13.80;68.90;;;;;;4914541;29;20439;-81
2023/04/06 12:04:36;;;;;;;6.68;4.40;;;13.80;69.60;;;;;;4932278;29;20038;-79
2023/04/06 12:07:02;;;;;;;6.90;4.93;;;13.70;69.30;;;;;;4915210;29;20032;-79
2023/04/06 12:09:28;;;;;;;7.00;5.03;;;13.80;69.80;;;;;;4932690;29;20032;-81
2023/04/06 12:11:53;;;;;;;6.63;4.63;;;13.80;70.00;;;;;;4931775;29;20032;-80
2023/04/06 12:14:20;;;;;;;7.03;4.68;;;13.70;69.50;;;;;;4915198;29;20027;-81
2023/04/06 12:16:46;;;;;;;6.50;4.40;;;13.80;69.60;;;;;;4914949;29;20877;-80
2023/04/06 12:19:11;;;;;;;7.22;4.93;;;13.80;69.60;;;;;;4932293;29;20103;-80
2023/04/06 12:21:37;;;;;;;6.90;4.70;;;13.80;69.30;;;;;;4931768;29;20043;-81
2023/04/06 12:24:03;;;;;;;6.57;4.40;;;13.70;69.20;;;;;;4914588;29;20039;-82
2023/04/06 12:26:30;;;;;;;6.97;4.70;;;13.70;69.50;;;;;;4914742;29;20120;-80
2023/04/06 12:28:56;;;;;;;7.95;5.03;;;13.70;69.30;;;;;;4916691;29;20035;-82
2023/04/06 12:31:22;;;;;;;7.60;5.15;;;13.70;69.50;;;;;;4920743;29;20063;-80
2023/04/06 12:33:49;;;;;;;7.00;4.93;;;13.70;69.40;;;;;;4920434;29;20035;-83
2023/04/06 12:36:18;;;;;;;6.60;4.43;;;13.70;69.20;;;;;;4919369;29;20035;-81
2023/04/06 12:38:45;;;;;;;7.00;4.68;;;13.70;69.20;;;;;;4919871;29;20036;-84
2023/04/06 12:41:11;;;;;;;7.50;5.00;;;13.70;69.20;;;;;;4919111;29;20040;-81
2023/04/06 12:43:37;;;;;;;6.95;4.68;;;13.70;69.10;;;;;;4918660;29;20301;-82
2023/04/06 12:46:02;;;;;;;7.85;4.68;;;13.80;69.10;;;;;;4936529;29;20102;-82
2023/04/06 12:48:28;;;;;;;6.63;4.68;;;13.70;69.20;;;;;;4918268;29;20065;-83
2023/04/06 12:50:58;;;;;;;7.35;4.93;;;13.70;69.00;;;;;;4917724;29;20039;-81
2023/04/06 12:53:24;;;;;;;6.35;4.53;;;13.70;69.20;;;;;;4918883;29;20410;-83
2023/04/06 12:55:49;;;;;;;6.82;4.68;;;13.70;69.10;;;;;;4934704;29;20034;-82
2023/04/06 12:58:16;;;;;;;7.20;4.63;;;13.70;69.10;;;;;;4917248;29;20031;-81
2023/04/06 13:00:42;;;;;;;6.78;4.78;;;13.70;69.20;;;;;;4934703;29;20106;-80
2023/04/06 13:03:07;;;;;;;7.40;4.80;;;13.60;69.10;;;;;;4916574;29;20465;-80
2023/04/06 13:05:32;;;;;;;7.00;4.97;;;13.60;69.10;;;;;;4934553;29;20035;-82
2023/04/06 13:07:58;;;;;;;6.90;4.93;;;13.70;69.30;;;;;;4916539;29;20027;-80
2023/04/06 13:10:24;;;;;;;6.85;4.72;;;13.60;69.30;;;;;;4934231;29;20031;-82
2023/04/06 13:12:49;;;;;;;7.60;5.25;;;13.60;69.20;;;;;;4916383;29;20031;-81
2023/04/06 13:15:15;;;;;;;7.30;4.82;;;13.60;69.30;;;;;;4916818;29;20134;-80
2023/04/06 13:17:41;;;;;;;7.10;4.85;;;13.60;69.50;;;;;;4916034;29;20497;-82
2023/04/06 13:20:07;;;;;;;7.15;4.55;;;13.50;69.20;;;;;;4918207;29;20027;-81
2023/04/06 13:22:32;;;;;;;7.15;4.80;;;13.50;69.30;;;;;;4919933;29;20040;-82
2023/04/06 13:24:58;;;;;;;6.85;4.50;;;13.50;69.40;;;;;;4919254;29;20027;-83
2023/04/06 13:27:23;;;;;;;7.60;5.30;;;13.50;69.30;;;;;;4936542;29;20036;-82
2023/04/06 13:29:49;;;;;;;7.45;5.40;;;13.40;69.30;;;;;;4918851;29;20836;-82
2023/04/06 13:32:15;;;;;;;7.65;5.03;;;13.50;69.50;;;;;;4918252;29;20032;-82
2023/04/06 13:34:44;;;;;;;7.70;4.90;;;13.50;69.50;;;;;;4918249;29;20064;-83
2023/04/06 13:37:11;;;;;;;7.30;5.07;;;13.50;69.60;;;;;;4918219;29;20036;-81
2023/04/06 13:39:37;;;;;;;6.70;4.80;;;13.50;69.60;;;;;;4917849;29;20039;-81
2023/04/06 13:42:03;;;;;;;7.43;4.90;;;13.40;69.70;;;;;;4917067;29;20037;-80
2023/04/06 13:44:28;;;;;;;7.38;4.72;;;13.40;69.70;;;;;;4917466;29;20031;-82
2023/04/06 13:46:54;;;;;;;7.93;5.10;;;13.40;69.80;;;;;;4914988;29;20035;-81
2023/04/06 13:49:19;;;;;;;7.05;4.63;;;13.40;69.80;;;;;;4913503;29;20060;-81
2023/04/06 13:51:45;;;;;;;7.72;5.00;;;13.40;69.80;;;;;;4916199;29;20521;-81
2023/04/06 13:54:10;;;;;;;7.22;4.95;;;13.40;69.90;;;;;;4933740;29;20031;-82
2023/04/06 13:56:36;;;;;;;7.57;4.82;;;13.40;70.00;;;;;;4916521;29;20032;-81
2023/04/06 13:59:03;;;;;;;6.43;4.50;;;13.30;70.10;;;;;;4915792;29;20092;-81
2023/04/06 14:01:28;;;;;;;7.22;5.00;;;13.30;70.20;;;;;;4930442;29;20035;-82
2023/04/06 14:03:54;;;;;;;6.80;4.70;;;13.30;70.20;;;;;;4914758;29;20035;-82
2023/04/06 14:06:19;;;;;;;7.47;4.88;;;13.30;70.30;;;;;;4912845;29;20024;-80
2023/04/06 14:08:45;;;;;;;7.82;5.43;;;13.30;70.20;;;;;;4914870;29;20024;-81
2023/04/06 14:11:12;;;;;;;7.10;5.00;;;13.30;70.30;;;;;;4915163;29;20106;-81
2023/04/06 14:13:38;;;;;;;7.60;4.90;;;13.30;70.40;;;;;;4932518;29;20031;-82
2023/04/06 14:16:04;;;;;;;7.65;5.30;;;13.20;70.60;;;;;;4914850;29;20176;-81